sensor_id;sensor_type;location;lat;lon;timestamp;pressure;altitude;pressure_sealevel;temperature
18219;BMP180;9234;49.344;11.120;2023-03-23T00:02:26;96948.00;;;9.50
18219;BMP180;9234;49.344;11.120;2023-03-23T00:04:54;96948.00;;;9.50
18219;BMP180;9234;49.344;11.120;2023-03-23T00:07:23;96938.00;;;9.50
18219;BMP180;9234;49.344;11.120;2023-03-23T00:09:54;96934.00;;;9.50
18219;BMP180;9234;49.344;11.120;2023-03-23T00:12:23;96940.00;;;9.50
18219;BMP180;9234;49.344;11.120;2023-03-23T00:14:54;96953.00;;;9.40
18219;BMP180;9234;49.344;11.120;2023-03-23T00:17:22;96945.00;;;9.40
18219;BMP180;9234;49.344;11.120;2023-03-23T00:19:49;96945.00;;;9.40
18219;BMP180;9234;49.344;11.120;2023-03-23T00:22:18;96944.00;;;9.30
18219;BMP180;9234;49.344;11.120;2023-03-23T00:24:48;96943.00;;;9.30
18219;BMP180;9234;49.344;11.120;2023-03-23T00:27:17;96939.00;;;9.30
18219;BMP180;9234;49.344;11.120;2023-03-23T00:29:44;96940.00;;;9.30
18219;BMP180;9234;49.344;11.120;2023-03-23T00:32:13;96930.00;;;9.30
18219;BMP180;9234;49.344;11.120;2023-03-23T00:34:42;96932.00;;;9.30
18219;BMP180;9234;49.344;11.120;2023-03-23T00:37:11;96925.00;;;9.30
18219;BMP180;9234;49.344;11.120;2023-03-23T00:39:43;96922.00;;;9.30
18219;BMP180;9234;49.344;11.120;2023-03-23T00:42:15;96912.00;;;9.30
18219;BMP180;9234;49.344;11.120;2023-03-23T00:44:43;96923.00;;;9.30
18219;BMP180;9234;49.344;11.120;2023-03-23T00:47:11;96919.00;;;9.30
18219;BMP180;9234;49.344;11.120;2023-03-23T00:49:39;96930.00;;;9.40
18219;BMP180;9234;49.344;11.120;2023-03-23T00:52:07;96907.00;;;9.30
18219;BMP180;9234;49.344;11.120;2023-03-23T00:54:34;96915.00;;;9.40
18219;BMP180;9234;49.344;11.120;2023-03-23T00:57:04;96901.00;;;9.40
18219;BMP180;9234;49.344;11.120;2023-03-23T00:59:33;96905.00;;;9.40
18219;BMP180;9234;49.344;11.120;2023-03-23T01:02:01;96904.00;;;9.40
18219;BMP180;9234;49.344;11.120;2023-03-23T01:04:28;96917.00;;;9.50
18219;BMP180;9234;49.344;11.120;2023-03-23T01:06:57;96902.00;;;9.50
18219;BMP180;9234;49.344;11.120;2023-03-23T01:09:26;96914.00;;;9.50
18219;BMP180;9234;49.344;11.120;2023-03-23T01:11:54;96912.00;;;9.60
18219;BMP180;9234;49.344;11.120;2023-03-23T01:14:23;96934.00;;;9.60
18219;BMP180;9234;49.344;11.120;2023-03-23T01:16:52;96914.00;;;9.70
18219;BMP180;9234;49.344;11.120;2023-03-23T01:19:19;96919.00;;;9.80
18219;BMP180;9234;49.344;11.120;2023-03-23T01:21:46;96906.00;;;9.80
18219;BMP180;9234;49.344;11.120;2023-03-23T01:24:13;96916.00;;;9.90
18219;BMP180;9234;49.344;11.120;2023-03-23T01:26:41;96892.00;;;10.00
18219;BMP180;9234;49.344;11.120;2023-03-23T01:29:08;96885.00;;;10.10
18219;BMP180;9234;49.344;11.120;2023-03-23T01:31:36;96893.00;;;10.20
18219;BMP180;9234;49.344;11.120;2023-03-23T01:34:06;96895.00;;;10.20
18219;BMP180;9234;49.344;11.120;2023-03-23T01:36:34;96885.00;;;10.30
18219;BMP180;9234;49.344;11.120;2023-03-23T01:39:05;96890.00;;;10.40
18219;BMP180;9234;49.344;11.120;2023-03-23T01:41:35;96896.00;;;10.40
18219;BMP180;9234;49.344;11.120;2023-03-23T01:45:09;96897.00;;;10.50
18219;BMP180;9234;49.344;11.120;2023-03-23T01:47:03;96886.00;;;10.60
18219;BMP180;9234;49.344;11.120;2023-03-23T01:49:39;96889.00;;;10.70
18219;BMP180;9234;49.344;11.120;2023-03-23T01:52:14;96888.00;;;10.80
18219;BMP180;9234;49.344;11.120;2023-03-23T01:54:46;96880.00;;;10.80
18219;BMP180;9234;49.344;11.120;2023-03-23T01:57:17;96884.00;;;10.90
18219;BMP180;9234;49.344;11.120;2023-03-23T01:59:49;96882.00;;;10.90
18219;BMP180;9234;49.344;11.120;2023-03-23T02:02:23;96886.00;;;11.00
18219;BMP180;9234;49.344;11.120;2023-03-23T02:05:00;96878.00;;;11.10
18219;BMP180;9234;49.344;11.120;2023-03-23T02:07:32;96871.00;;;11.10
18219;BMP180;9234;49.344;11.120;2023-03-23T02:10:01;96879.00;;;11.20
18219;BMP180;9234;49.344;11.120;2023-03-23T02:12:33;96871.00;;;11.20
18219;BMP180;9234;49.344;11.120;2023-03-23T02:15:01;96869.00;;;11.30
18219;BMP180;9234;49.344;11.120;2023-03-23T02:17:39;96880.00;;;11.30
18219;BMP180;9234;49.344;11.120;2023-03-23T02:20:37;96860.00;;;11.40
18219;BMP180;9234;49.344;11.120;2023-03-23T02:23:44;96871.00;;;11.40
18219;BMP180;9234;49.344;11.120;2023-03-23T02:26:34;96867.00;;;11.50
18219;BMP180;9234;49.344;11.120;2023-03-23T02:29:23;96869.00;;;11.50
18219;BMP180;9234;49.344;11.120;2023-03-23T02:32:39;96851.00;;;11.60
18219;BMP180;9234;49.344;11.120;2023-03-23T02:35:18;96845.00;;;11.60
18219;BMP180;9234;49.344;11.120;2023-03-23T02:37:52;96853.00;;;11.60
18219;BMP180;9234;49.344;11.120;2023-03-23T02:40:26;96846.00;;;11.70
18219;BMP180;9234;49.344;11.120;2023-03-23T02:42:57;96850.00;;;11.70
18219;BMP180;9234;49.344;11.120;2023-03-23T02:45:28;96857.00;;;11.70
18219;BMP180;9234;49.344;11.120;2023-03-23T02:47:58;96844.00;;;11.70
18219;BMP180;9234;49.344;11.120;2023-03-23T02:50:31;96837.00;;;11.80
18219;BMP180;9234;49.344;11.120;2023-03-23T02:53:05;96840.00;;;11.80
18219;BMP180;9234;49.344;11.120;2023-03-23T02:55:36;96845.00;;;11.80
18219;BMP180;9234;49.344;11.120;2023-03-23T02:58:12;96847.00;;;11.80
18219;BMP180;9234;49.344;11.120;2023-03-23T03:00:42;96837.00;;;11.80
18219;BMP180;9234;49.344;11.120;2023-03-23T03:03:13;96836.00;;;11.90
18219;BMP180;9234;49.344;11.120;2023-03-23T03:05:55;96828.00;;;11.90
18219;BMP180;9234;49.344;11.120;2023-03-23T03:08:36;96847.00;;;11.90
18219;BMP180;9234;49.344;11.120;2023-03-23T03:11:11;96836.00;;;11.90
18219;BMP180;9234;49.344;11.120;2023-03-23T03:13:48;96832.00;;;11.90
18219;BMP180;9234;49.344;11.120;2023-03-23T03:16:26;96839.00;;;12.00
18219;BMP180;9234;49.344;11.120;2023-03-23T03:19:00;96840.00;;;12.00
18219;BMP180;9234;49.344;11.120;2023-03-23T03:21:34;96833.00;;;12.00
18219;BMP180;9234;49.344;11.120;2023-03-23T03:24:05;96828.00;;;12.00
18219;BMP180;9234;49.344;11.120;2023-03-23T03:26:39;96827.00;;;12.00
18219;BMP180;9234;49.344;11.120;2023-03-23T03:29:33;96826.00;;;12.00
18219;BMP180;9234;49.344;11.120;2023-03-23T03:32:04;96817.00;;;12.00
18219;BMP180;9234;49.344;11.120;2023-03-23T03:34:34;96820.00;;;12.10
18219;BMP180;9234;49.344;11.120;2023-03-23T03:37:05;96808.00;;;12.10
18219;BMP180;9234;49.344;11.120;2023-03-23T03:39:36;96798.00;;;12.10
18219;BMP180;9234;49.344;11.120;2023-03-23T03:42:04;96811.00;;;12.00
18219;BMP180;9234;49.344;11.120;2023-03-23T03:44:32;96808.00;;;12.00
18219;BMP180;9234;49.344;11.120;2023-03-23T03:47:00;96808.00;;;12.00
18219;BMP180;9234;49.344;11.120;2023-03-23T03:49:27;96799.00;;;12.00
18219;BMP180;9234;49.344;11.120;2023-03-23T03:51:55;96800.00;;;12.00
18219;BMP180;9234;49.344;11.120;2023-03-23T03:54:35;96798.00;;;12.00
18219;BMP180;9234;49.344;11.120;2023-03-23T03:57:03;96798.00;;;12.00
18219;BMP180;9234;49.344;11.120;2023-03-23T04:00:04;96801.00;;;12.00
18219;BMP180;9234;49.344;11.120;2023-03-23T04:02:46;96818.00;;;12.00
18219;BMP180;9234;49.344;11.120;2023-03-23T04:05:22;96802.00;;;11.90
18219;BMP180;9234;49.344;11.120;2023-03-23T04:07:50;96796.00;;;11.90
18219;BMP180;9234;49.344;11.120;2023-03-23T04:10:21;96818.00;;;12.00
18219;BMP180;9234;49.344;11.120;2023-03-23T04:12:53;96799.00;;;12.00
18219;BMP180;9234;49.344;11.120;2023-03-23T04:15:38;96792.00;;;12.00
18219;BMP180;9234;49.344;11.120;2023-03-23T04:18:06;96801.00;;;12.00
18219;BMP180;9234;49.344;11.120;2023-03-23T04:20:35;96805.00;;;12.10
18219;BMP180;9234;49.344;11.120;2023-03-23T04:23:04;96819.00;;;12.10
18219;BMP180;9234;49.344;11.120;2023-03-23T04:25:34;96827.00;;;12.10
18219;BMP180;9234;49.344;11.120;2023-03-23T04:28:03;96818.00;;;12.10
18219;BMP180;9234;49.344;11.120;2023-03-23T04:30:38;96807.00;;;12.20
18219;BMP180;9234;49.344;11.120;2023-03-23T04:33:11;96825.00;;;12.20
18219;BMP180;9234;49.344;11.120;2023-03-23T04:35:43;96813.00;;;12.20
18219;BMP180;9234;49.344;11.120;2023-03-23T04:38:23;96815.00;;;12.20
18219;BMP180;9234;49.344;11.120;2023-03-23T04:40:58;96818.00;;;12.20
18219;BMP180;9234;49.344;11.120;2023-03-23T04:43:47;96808.00;;;12.20
18219;BMP180;9234;49.344;11.120;2023-03-23T04:46:26;96802.00;;;12.20
18219;BMP180;9234;49.344;11.120;2023-03-23T04:48:58;96804.00;;;12.20
18219;BMP180;9234;49.344;11.120;2023-03-23T04:51:30;96813.00;;;12.20
18219;BMP180;9234;49.344;11.120;2023-03-23T04:54:10;96806.00;;;12.20
18219;BMP180;9234;49.344;11.120;2023-03-23T04:56:41;96809.00;;;12.30
18219;BMP180;9234;49.344;11.120;2023-03-23T04:59:13;96807.00;;;12.30
18219;BMP180;9234;49.344;11.120;2023-03-23T05:02:06;96816.00;;;12.30
18219;BMP180;9234;49.344;11.120;2023-03-23T05:04:34;96811.00;;;12.30
18219;BMP180;9234;49.344;11.120;2023-03-23T05:07:13;96805.00;;;12.40
18219;BMP180;9234;49.344;11.120;2023-03-23T05:09:47;96813.00;;;12.40
18219;BMP180;9234;49.344;11.120;2023-03-23T05:12:18;96804.00;;;12.40
18219;BMP180;9234;49.344;11.120;2023-03-23T05:14:53;96805.00;;;12.40
18219;BMP180;9234;49.344;11.120;2023-03-23T05:17:24;96802.00;;;12.50
18219;BMP180;9234;49.344;11.120;2023-03-23T05:19:55;96807.00;;;12.50
18219;BMP180;9234;49.344;11.120;2023-03-23T05:22:39;96813.00;;;12.50
18219;BMP180;9234;49.344;11.120;2023-03-23T05:25:08;96794.00;;;12.60
18219;BMP180;9234;49.344;11.120;2023-03-23T05:27:40;96798.00;;;12.60
18219;BMP180;9234;49.344;11.120;2023-03-23T05:30:21;96794.00;;;12.60
18219;BMP180;9234;49.344;11.120;2023-03-23T05:32:49;96800.00;;;12.60
18219;BMP180;9234;49.344;11.120;2023-03-23T05:35:26;96809.00;;;12.70
18219;BMP180;9234;49.344;11.120;2023-03-23T05:37:54;96806.00;;;12.70
18219;BMP180;9234;49.344;11.120;2023-03-23T05:40:22;96796.00;;;12.70
18219;BMP180;9234;49.344;11.120;2023-03-23T05:43:13;96799.00;;;12.80
18219;BMP180;9234;49.344;11.120;2023-03-23T05:45:49;96799.00;;;12.80
18219;BMP180;9234;49.344;11.120;2023-03-23T05:48:16;96803.00;;;12.90
18219;BMP180;9234;49.344;11.120;2023-03-23T05:50:44;96792.00;;;12.90
18219;BMP180;9234;49.344;11.120;2023-03-23T05:53:11;96804.00;;;13.00
18219;BMP180;9234;49.344;11.120;2023-03-23T05:55:39;96811.00;;;13.00
18219;BMP180;9234;49.344;11.120;2023-03-23T05:58:29;96804.00;;;13.10
18219;BMP180;9234;49.344;11.120;2023-03-23T06:00:57;96807.00;;;13.10
18219;BMP180;9234;49.344;11.120;2023-03-23T06:03:28;96800.00;;;13.20
18219;BMP180;9234;49.344;11.120;2023-03-23T06:06:16;96803.00;;;13.30
18219;BMP180;9234;49.344;11.120;2023-03-23T06:08:51;96808.00;;;13.30
18219;BMP180;9234;49.344;11.120;2023-03-23T06:11:29;96809.00;;;13.40
18219;BMP180;9234;49.344;11.120;2023-03-23T06:14:17;96815.00;;;13.40
18219;BMP180;9234;49.344;11.120;2023-03-23T06:16:45;96825.00;;;13.40
18219;BMP180;9234;49.344;11.120;2023-03-23T06:19:14;96818.00;;;13.50
18219;BMP180;9234;49.344;11.120;2023-03-23T06:21:51;96812.00;;;13.50
18219;BMP180;9234;49.344;11.120;2023-03-23T06:24:53;96812.00;;;13.60
18219;BMP180;9234;49.344;11.120;2023-03-23T06:27:28;96814.00;;;13.70
18219;BMP180;9234;49.344;11.120;2023-03-23T06:29:58;96810.00;;;13.80
18219;BMP180;9234;49.344;11.120;2023-03-23T06:32:28;96814.00;;;13.80
18219;BMP180;9234;49.344;11.120;2023-03-23T06:34:57;96815.00;;;13.90
18219;BMP180;9234;49.344;11.120;2023-03-23T06:37:52;96811.00;;;13.90
18219;BMP180;9234;49.344;11.120;2023-03-23T06:40:30;96826.00;;;13.90
18219;BMP180;9234;49.344;11.120;2023-03-23T06:42:58;96810.00;;;14.00
18219;BMP180;9234;49.344;11.120;2023-03-23T06:45:30;96808.00;;;14.00
18219;BMP180;9234;49.344;11.120;2023-03-23T06:48:23;96807.00;;;14.00
18219;BMP180;9234;49.344;11.120;2023-03-23T06:50:50;96828.00;;;14.00
18219;BMP180;9234;49.344;11.120;2023-03-23T06:53:20;96815.00;;;14.10
18219;BMP180;9234;49.344;11.120;2023-03-23T06:55:49;96828.00;;;14.10
18219;BMP180;9234;49.344;11.120;2023-03-23T06:58:17;96813.00;;;14.20
18219;BMP180;9234;49.344;11.120;2023-03-23T07:00:45;96811.00;;;14.30
18219;BMP180;9234;49.344;11.120;2023-03-23T07:03:15;96817.00;;;14.30
18219;BMP180;9234;49.344;11.120;2023-03-23T07:05:46;96814.00;;;14.40
18219;BMP180;9234;49.344;11.120;2023-03-23T07:08:14;96825.00;;;14.50
18219;BMP180;9234;49.344;11.120;2023-03-23T07:10:47;96809.00;;;14.70
18219;BMP180;9234;49.344;11.120;2023-03-23T07:13:16;96829.00;;;14.80
18219;BMP180;9234;49.344;11.120;2023-03-23T07:15:51;96819.00;;;15.00
18219;BMP180;9234;49.344;11.120;2023-03-23T07:18:19;96830.00;;;15.10
18219;BMP180;9234;49.344;11.120;2023-03-23T07:20:48;96826.00;;;15.20
18219;BMP180;9234;49.344;11.120;2023-03-23T07:23:18;96832.00;;;15.40
18219;BMP180;9234;49.344;11.120;2023-03-23T07:25:55;96849.00;;;15.60
18219;BMP180;9234;49.344;11.120;2023-03-23T07:28:29;96839.00;;;15.70
18219;BMP180;9234;49.344;11.120;2023-03-23T07:31:05;96842.00;;;15.80
18219;BMP180;9234;49.344;11.120;2023-03-23T07:33:33;96850.00;;;15.90
18219;BMP180;9234;49.344;11.120;2023-03-23T07:36:02;96842.00;;;15.90
18219;BMP180;9234;49.344;11.120;2023-03-23T07:38:30;96843.00;;;16.00
18219;BMP180;9234;49.344;11.120;2023-03-23T07:40:58;96852.00;;;16.10
18219;BMP180;9234;49.344;11.120;2023-03-23T07:43:25;96837.00;;;16.20
18219;BMP180;9234;49.344;11.120;2023-03-23T07:46:13;96839.00;;;16.20
18219;BMP180;9234;49.344;11.120;2023-03-23T07:49:02;96847.00;;;16.20
18219;BMP180;9234;49.344;11.120;2023-03-23T07:51:37;96849.00;;;16.20
18219;BMP180;9234;49.344;11.120;2023-03-23T07:54:06;96851.00;;;16.20
18219;BMP180;9234;49.344;11.120;2023-03-23T07:56:57;96850.00;;;16.20
18219;BMP180;9234;49.344;11.120;2023-03-23T07:59:27;96861.00;;;16.30
18219;BMP180;9234;49.344;11.120;2023-03-23T08:01:58;96856.00;;;16.40
18219;BMP180;9234;49.344;11.120;2023-03-23T08:04:33;96862.00;;;16.50
18219;BMP180;9234;49.344;11.120;2023-03-23T08:07:21;96843.00;;;16.60
18219;BMP180;9234;49.344;11.120;2023-03-23T08:10:00;96856.00;;;16.70
18219;BMP180;9234;49.344;11.120;2023-03-23T08:12:46;96864.00;;;16.80
18219;BMP180;9234;49.344;11.120;2023-03-23T08:15:31;96867.00;;;16.80
18219;BMP180;9234;49.344;11.120;2023-03-23T08:18:23;96873.00;;;16.80
18219;BMP180;9234;49.344;11.120;2023-03-23T08:21:06;96868.00;;;16.80
18219;BMP180;9234;49.344;11.120;2023-03-23T08:23:53;96869.00;;;16.70
18219;BMP180;9234;49.344;11.120;2023-03-23T08:26:40;96876.00;;;16.70
18219;BMP180;9234;49.344;11.120;2023-03-23T08:29:26;96881.00;;;16.60
18219;BMP180;9234;49.344;11.120;2023-03-23T08:32:14;96884.00;;;16.60
18219;BMP180;9234;49.344;11.120;2023-03-23T08:34:53;96882.00;;;16.50
18219;BMP180;9234;49.344;11.120;2023-03-23T08:37:50;96889.00;;;16.40
18219;BMP180;9234;49.344;11.120;2023-03-23T08:40:44;96879.00;;;16.30
18219;BMP180;9234;49.344;11.120;2023-03-23T08:43:11;96884.00;;;16.30
18219;BMP180;9234;49.344;11.120;2023-03-23T08:46:07;96880.00;;;16.20
18219;BMP180;9234;49.344;11.120;2023-03-23T08:49:06;96884.00;;;16.10
18219;BMP180;9234;49.344;11.120;2023-03-23T08:51:57;96898.00;;;16.10
18219;BMP180;9234;49.344;11.120;2023-03-23T08:54:44;96890.00;;;16.00
18219;BMP180;9234;49.344;11.120;2023-03-23T08:57:48;96886.00;;;16.00
18219;BMP180;9234;49.344;11.120;2023-03-23T09:00:50;96893.00;;;16.00
18219;BMP180;9234;49.344;11.120;2023-03-23T09:03:37;96900.00;;;16.00
18219;BMP180;9234;49.344;11.120;2023-03-23T09:06:24;96900.00;;;16.00
18219;BMP180;9234;49.344;11.120;2023-03-23T09:08:54;96898.00;;;16.10
18219;BMP180;9234;49.344;11.120;2023-03-23T09:11:22;96904.00;;;16.10
18219;BMP180;9234;49.344;11.120;2023-03-23T09:13:49;96902.00;;;16.10
18219;BMP180;9234;49.344;11.120;2023-03-23T09:16:16;96892.00;;;16.20
18219;BMP180;9234;49.344;11.120;2023-03-23T09:18:44;96895.00;;;16.20
18219;BMP180;9234;49.344;11.120;2023-03-23T09:21:12;96901.00;;;16.30
18219;BMP180;9234;49.344;11.120;2023-03-23T09:23:39;96904.00;;;16.40
18219;BMP180;9234;49.344;11.120;2023-03-23T09:26:11;96906.00;;;16.40
18219;BMP180;9234;49.344;11.120;2023-03-23T09:28:38;96902.00;;;16.50
18219;BMP180;9234;49.344;11.120;2023-03-23T09:31:06;96900.00;;;16.60
18219;BMP180;9234;49.344;11.120;2023-03-23T09:33:33;96907.00;;;16.60
18219;BMP180;9234;49.344;11.120;2023-03-23T09:36:01;96914.00;;;16.70
18219;BMP180;9234;49.344;11.120;2023-03-23T09:38:31;96917.00;;;16.80
18219;BMP180;9234;49.344;11.120;2023-03-23T09:41:11;96915.00;;;16.80
18219;BMP180;9234;49.344;11.120;2023-03-23T09:44:01;96917.00;;;16.90
18219;BMP180;9234;49.344;11.120;2023-03-23T09:46:51;96928.00;;;17.00
18219;BMP180;9234;49.344;11.120;2023-03-23T09:49:25;96924.00;;;17.20
18219;BMP180;9234;49.344;11.120;2023-03-23T09:51:57;96927.00;;;17.30
18219;BMP180;9234;49.344;11.120;2023-03-23T09:54:29;96920.00;;;17.40
18219;BMP180;9234;49.344;11.120;2023-03-23T09:56:59;96928.00;;;17.60
18219;BMP180;9234;49.344;11.120;2023-03-23T09:59:34;96920.00;;;17.70
18219;BMP180;9234;49.344;11.120;2023-03-23T10:02:13;96920.00;;;17.90
18219;BMP180;9234;49.344;11.120;2023-03-23T10:04:46;96934.00;;;18.00
18219;BMP180;9234;49.344;11.120;2023-03-23T10:07:19;96926.00;;;18.10
18219;BMP180;9234;49.344;11.120;2023-03-23T10:09:52;96938.00;;;18.30
18219;BMP180;9234;49.344;11.120;2023-03-23T10:12:29;96921.00;;;18.30
18219;BMP180;9234;49.344;11.120;2023-03-23T10:15:17;96930.00;;;18.40
18219;BMP180;9234;49.344;11.120;2023-03-23T10:17:51;96940.00;;;18.40
18219;BMP180;9234;49.344;11.120;2023-03-23T10:20:37;96938.00;;;18.50
18219;BMP180;9234;49.344;11.120;2023-03-23T10:23:52;96938.00;;;18.50
18219;BMP180;9234;49.344;11.120;2023-03-23T10:26:34;96933.00;;;18.40
18219;BMP180;9234;49.344;11.120;2023-03-23T10:29:15;96948.00;;;18.30
18219;BMP180;9234;49.344;11.120;2023-03-23T10:31:48;96946.00;;;18.20
18219;BMP180;9234;49.344;11.120;2023-03-23T10:34:24;96943.00;;;18.00
18219;BMP180;9234;49.344;11.120;2023-03-23T10:37:01;96946.00;;;17.90
18219;BMP180;9234;49.344;11.120;2023-03-23T10:39:41;96933.00;;;17.80
18219;BMP180;9234;49.344;11.120;2023-03-23T10:42:10;96954.00;;;17.70
18219;BMP180;9234;49.344;11.120;2023-03-23T10:44:37;96957.00;;;17.60
18219;BMP180;9234;49.344;11.120;2023-03-23T10:47:08;96951.00;;;17.50
18219;BMP180;9234;49.344;11.120;2023-03-23T10:49:41;96962.00;;;17.40
18219;BMP180;9234;49.344;11.120;2023-03-23T10:52:27;96954.00;;;17.40
18219;BMP180;9234;49.344;11.120;2023-03-23T10:55:02;96957.00;;;17.40
18219;BMP180;9234;49.344;11.120;2023-03-23T10:57:32;96970.00;;;17.40
18219;BMP180;9234;49.344;11.120;2023-03-23T11:00:03;96960.00;;;17.30
18219;BMP180;9234;49.344;11.120;2023-03-23T11:02:43;96964.00;;;17.30
18219;BMP180;9234;49.344;11.120;2023-03-23T11:05:19;96952.00;;;17.30
18219;BMP180;9234;49.344;11.120;2023-03-23T11:07:53;96959.00;;;17.30
18219;BMP180;9234;49.344;11.120;2023-03-23T11:10:25;96978.00;;;17.30
18219;BMP180;9234;49.344;11.120;2023-03-23T11:12:57;96985.00;;;17.30
18219;BMP180;9234;49.344;11.120;2023-03-23T11:15:32;96979.00;;;17.20
18219;BMP180;9234;49.344;11.120;2023-03-23T11:18:04;96984.00;;;17.30
18219;BMP180;9234;49.344;11.120;2023-03-23T11:20:37;96983.00;;;17.30
18219;BMP180;9234;49.344;11.120;2023-03-23T11:23:19;96978.00;;;17.20
18219;BMP180;9234;49.344;11.120;2023-03-23T11:25:56;96988.00;;;17.20
18219;BMP180;9234;49.344;11.120;2023-03-23T11:28:31;96983.00;;;17.30
18219;BMP180;9234;49.344;11.120;2023-03-23T11:31:03;96990.00;;;17.50
18219;BMP180;9234;49.344;11.120;2023-03-23T11:33:46;97006.00;;;17.50
18219;BMP180;9234;49.344;11.120;2023-03-23T11:36:14;96983.00;;;17.50
18219;BMP180;9234;49.344;11.120;2023-03-23T11:38:43;96987.00;;;17.40
18219;BMP180;9234;49.344;11.120;2023-03-23T11:41:16;96977.00;;;17.30
18219;BMP180;9234;49.344;11.120;2023-03-23T11:43:46;96992.00;;;17.30
18219;BMP180;9234;49.344;11.120;2023-03-23T11:46:41;96981.00;;;17.40
18219;BMP180;9234;49.344;11.120;2023-03-23T11:49:20;96981.00;;;17.30
18219;BMP180;9234;49.344;11.120;2023-03-23T11:51:54;96993.00;;;17.40
18219;BMP180;9234;49.344;11.120;2023-03-23T11:54:30;96982.00;;;17.50
18219;BMP180;9234;49.344;11.120;2023-03-23T11:56:59;96983.00;;;17.60
18219;BMP180;9234;49.344;11.120;2023-03-23T11:59:33;96985.00;;;17.60
18219;BMP180;9234;49.344;11.120;2023-03-23T12:02:25;96986.00;;;17.70
18219;BMP180;9234;49.344;11.120;2023-03-23T12:05:29;96993.00;;;17.70
18219;BMP180;9234;49.344;11.120;2023-03-23T12:08:20;96999.00;;;17.70
18219;BMP180;9234;49.344;11.120;2023-03-23T12:10:58;96987.00;;;17.60
18219;BMP180;9234;49.344;11.120;2023-03-23T12:13:54;96986.00;;;17.40
18219;BMP180;9234;49.344;11.120;2023-03-23T12:16:42;96989.00;;;17.40
18219;BMP180;9234;49.344;11.120;2023-03-23T12:19:27;97001.00;;;17.30
18219;BMP180;9234;49.344;11.120;2023-03-23T12:22:12;97000.00;;;17.30
18219;BMP180;9234;49.344;11.120;2023-03-23T12:24:59;96985.00;;;17.20
18219;BMP180;9234;49.344;11.120;2023-03-23T12:27:36;96980.00;;;17.20
18219;BMP180;9234;49.344;11.120;2023-03-23T12:30:24;96965.00;;;17.40
18219;BMP180;9234;49.344;11.120;2023-03-23T12:33:09;96965.00;;;17.60
18219;BMP180;9234;49.344;11.120;2023-03-23T12:36:00;96975.00;;;18.00
18219;BMP180;9234;49.344;11.120;2023-03-23T12:42:08;96958.00;;;18.50
18219;BMP180;9234;49.344;11.120;2023-03-23T12:44:46;96963.00;;;18.50
18219;BMP180;9234;49.344;11.120;2023-03-23T12:47:29;96956.00;;;18.50
18219;BMP180;9234;49.344;11.120;2023-03-23T12:50:07;96967.00;;;18.40
18219;BMP180;9234;49.344;11.120;2023-03-23T12:52:47;96959.00;;;18.50
18219;BMP180;9234;49.344;11.120;2023-03-23T12:55:27;96956.00;;;18.30
18219;BMP180;9234;49.344;11.120;2023-03-23T12:58:05;96968.00;;;18.30
18219;BMP180;9234;49.344;11.120;2023-03-23T13:00:50;96968.00;;;18.20
18219;BMP180;9234;49.344;11.120;2023-03-23T13:03:27;96962.00;;;18.20
18219;BMP180;9234;49.344;11.120;2023-03-23T13:06:12;96961.00;;;18.20
18219;BMP180;9234;49.344;11.120;2023-03-23T13:08:53;96953.00;;;18.20
18219;BMP180;9234;49.344;11.120;2023-03-23T13:11:32;96963.00;;;18.20
18219;BMP180;9234;49.344;11.120;2023-03-23T13:14:13;96951.00;;;18.10
18219;BMP180;9234;49.344;11.120;2023-03-23T13:16:52;96947.00;;;18.10
18219;BMP180;9234;49.344;11.120;2023-03-23T13:19:30;96949.00;;;18.10
18219;BMP180;9234;49.344;11.120;2023-03-23T13:22:06;96953.00;;;18.10
18219;BMP180;9234;49.344;11.120;2023-03-23T13:24:50;96966.00;;;18.10
18219;BMP180;9234;49.344;11.120;2023-03-23T13:27:24;96967.00;;;18.20
18219;BMP180;9234;49.344;11.120;2023-03-23T13:29:54;96954.00;;;18.20
18219;BMP180;9234;49.344;11.120;2023-03-23T13:32:35;96952.00;;;18.10
18219;BMP180;9234;49.344;11.120;2023-03-23T13:35:11;96968.00;;;18.00
18219;BMP180;9234;49.344;11.120;2023-03-23T13:37:45;96955.00;;;18.00
18219;BMP180;9234;49.344;11.120;2023-03-23T13:40:26;96952.00;;;18.10
18219;BMP180;9234;49.344;11.120;2023-03-23T13:42:58;96960.00;;;18.30
18219;BMP180;9234;49.344;11.120;2023-03-23T13:45:43;96951.00;;;18.60
18219;BMP180;9234;49.344;11.120;2023-03-23T13:48:20;96946.00;;;19.00
18219;BMP180;9234;49.344;11.120;2023-03-23T13:50:56;96936.00;;;19.30
18219;BMP180;9234;49.344;11.120;2023-03-23T13:53:28;96931.00;;;19.40
18219;BMP180;9234;49.344;11.120;2023-03-23T13:56:17;96916.00;;;19.60
18219;BMP180;9234;49.344;11.120;2023-03-23T13:58:49;96921.00;;;19.50
18219;BMP180;9234;49.344;11.120;2023-03-23T14:01:30;96916.00;;;19.60
18219;BMP180;9234;49.344;11.120;2023-03-23T14:04:05;96924.00;;;19.70
18219;BMP180;9234;49.344;11.120;2023-03-23T14:06:35;96912.00;;;19.80
18219;BMP180;9234;49.344;11.120;2023-03-23T14:09:12;96913.00;;;19.80
18219;BMP180;9234;49.344;11.120;2023-03-23T14:11:54;96919.00;;;19.60
18219;BMP180;9234;49.344;11.120;2023-03-23T14:14:31;96917.00;;;19.40
18219;BMP180;9234;49.344;11.120;2023-03-23T14:17:07;96916.00;;;19.40
18219;BMP180;9234;49.344;11.120;2023-03-23T14:19:40;96913.00;;;19.40
18219;BMP180;9234;49.344;11.120;2023-03-23T14:22:19;96916.00;;;19.40
18219;BMP180;9234;49.344;11.120;2023-03-23T14:24:46;96921.00;;;19.40
18219;BMP180;9234;49.344;11.120;2023-03-23T14:27:18;96929.00;;;19.30
18219;BMP180;9234;49.344;11.120;2023-03-23T14:29:58;96913.00;;;19.20
18219;BMP180;9234;49.344;11.120;2023-03-23T14:32:29;96920.00;;;19.20
18219;BMP180;9234;49.344;11.120;2023-03-23T14:35:01;96926.00;;;19.10
18219;BMP180;9234;49.344;11.120;2023-03-23T14:37:32;96914.00;;;19.00
18219;BMP180;9234;49.344;11.120;2023-03-23T14:40:01;96914.00;;;18.80
18219;BMP180;9234;49.344;11.120;2023-03-23T14:42:34;96901.00;;;18.80
18219;BMP180;9234;49.344;11.120;2023-03-23T14:45:06;96893.00;;;18.90
18219;BMP180;9234;49.344;11.120;2023-03-23T14:47:37;96875.00;;;19.00
18219;BMP180;9234;49.344;11.120;2023-03-23T14:50:22;96904.00;;;19.10
18219;BMP180;9234;49.344;11.120;2023-03-23T14:52:50;96923.00;;;19.00
18219;BMP180;9234;49.344;11.120;2023-03-23T14:55:20;96916.00;;;18.90
18219;BMP180;9234;49.344;11.120;2023-03-23T14:57:48;96898.00;;;18.90
18219;BMP180;9234;49.344;11.120;2023-03-23T15:00:23;96903.00;;;18.80
18219;BMP180;9234;49.344;11.120;2023-03-23T15:02:55;96902.00;;;18.70